createdAt,value
2023-03-27T00:02:03.306Z,5.64
2023-03-27T00:04:29.924Z,5.59
2023-03-27T00:06:56.281Z,5.53
2023-03-27T00:09:22.615Z,5.47
2023-03-27T00:11:49.028Z,5.45
2023-03-27T00:14:16.084Z,5.50
2023-03-27T00:16:42.704Z,5.45
2023-03-27T00:19:09.702Z,5.46
2023-03-27T00:21:36.102Z,5.47
2023-03-27T00:24:02.490Z,5.47
2023-03-27T00:26:30.453Z,5.48
2023-03-27T00:28:57.051Z,5.45
2023-03-27T00:31:23.618Z,5.39
2023-03-27T00:33:50.018Z,5.44
2023-03-27T00:36:16.439Z,5.37
2023-03-27T00:38:43.747Z,5.41
2023-03-27T00:41:10.262Z,5.40
2023-03-27T00:43:42.665Z,5.35
2023-03-27T00:46:15.435Z,5.35
2023-03-27T00:48:43.367Z,5.34
2023-03-27T00:51:09.773Z,5.27
2023-03-27T00:53:37.088Z,5.24
2023-03-27T00:56:07.956Z,5.21
2023-03-27T00:58:38.634Z,5.14
2023-03-27T01:01:05.413Z,5.10
2023-03-27T01:03:33.091Z,5.09
2023-03-27T01:06:02.909Z,5.08
2023-03-27T01:08:33.545Z,5.07
2023-03-27T01:11:14.036Z,5.04
2023-03-27T01:14:05.122Z,5.10
2023-03-27T01:16:50.320Z,5.02
2023-03-27T01:19:29.082Z,4.97
2023-03-27T01:22:14.716Z,4.93
2023-03-27T01:25:15.761Z,4.94
2023-03-27T01:28:16.179Z,4.91
2023-03-27T01:31:18.019Z,4.85
2023-03-27T01:33:56.610Z,4.84
2023-03-27T01:36:55.613Z,4.86
2023-03-27T01:39:39.086Z,4.88
2023-03-27T01:42:15.816Z,4.84
2023-03-27T01:45:08.301Z,4.86
2023-03-27T01:48:07.078Z,4.82
2023-03-27T01:50:36.781Z,4.83
2023-03-27T01:53:10.532Z,4.86
2023-03-27T01:55:41.552Z,4.88
2023-03-27T01:58:14.092Z,4.90
2023-03-27T02:00:52.165Z,4.86
2023-03-27T02:03:29.183Z,4.87
2023-03-27T02:06:02.133Z,4.84
2023-03-27T02:08:50.698Z,4.75
2023-03-27T02:11:17.535Z,4.76
2023-03-27T02:13:49.949Z,4.70
2023-03-27T02:16:20.950Z,4.63
2023-03-27T02:18:59.231Z,4.59
2023-03-27T02:21:25.767Z,4.63
2023-03-27T02:23:53.040Z,4.61
2023-03-27T02:26:19.535Z,4.55
2023-03-27T02:28:57.200Z,4.57
2023-03-27T02:31:48.312Z,4.54
2023-03-27T02:34:27.344Z,4.55
2023-03-27T02:37:02.385Z,4.52
2023-03-27T02:39:38.108Z,4.51
2023-03-27T02:42:28.702Z,4.53
2023-03-27T02:45:03.479Z,4.52
2023-03-27T02:47:42.765Z,4.46
2023-03-27T02:50:16.741Z,4.51
2023-03-27T02:52:48.072Z,4.46
2023-03-27T02:55:19.063Z,4.43
2023-03-27T02:57:51.944Z,4.40
2023-03-27T03:00:25.945Z,4.39
2023-03-27T03:03:00.389Z,4.40
2023-03-27T03:05:27.112Z,4.41
2023-03-27T03:07:54.343Z,4.39
2023-03-27T03:10:21.291Z,4.35
2023-03-27T03:12:47.757Z,4.32
2023-03-27T03:15:14.630Z,4.34
2023-03-27T03:17:41.823Z,4.23
2023-03-27T03:20:09.898Z,4.21
2023-03-27T03:22:39.856Z,4.20
2023-03-27T03:25:07.663Z,4.26
2023-03-27T03:27:34.228Z,4.22
2023-03-27T03:30:00.817Z,4.26
2023-03-27T03:32:27.462Z,4.22
2023-03-27T03:34:53.957Z,4.21
2023-03-27T03:37:20.697Z,4.19
2023-03-27T03:39:47.035Z,4.16
2023-03-27T03:42:22.210Z,4.13
2023-03-27T03:44:49.539Z,4.10
2023-03-27T03:47:16.230Z,4.14
2023-03-27T03:49:42.619Z,4.13
2023-03-27T03:52:09.074Z,4.14
2023-03-27T03:54:38.549Z,4.16
2023-03-27T03:57:05.069Z,4.07
2023-03-27T03:59:31.703Z,4.11
2023-03-27T04:01:58.154Z,4.03
2023-03-27T04:04:24.578Z,4.02
2023-03-27T04:06:50.974Z,3.99
2023-03-27T04:09:17.345Z,4.02
2023-03-27T04:11:43.707Z,4.02
2023-03-27T04:14:10.353Z,4.05
2023-03-27T04:16:36.872Z,4.03
2023-03-27T04:19:03.257Z,4.04
2023-03-27T04:21:29.685Z,3.95
2023-03-27T04:24:02.182Z,3.99
2023-03-27T04:26:29.591Z,4.00
2023-03-27T04:28:56.024Z,3.96
2023-03-27T04:31:22.453Z,3.94
2023-03-27T04:33:51.925Z,3.91
2023-03-27T04:36:18.998Z,3.94
2023-03-27T04:38:45.686Z,3.91
2023-03-27T04:41:12.017Z,3.90
2023-03-27T04:43:40.170Z,3.83
2023-03-27T04:46:07.990Z,3.78
2023-03-27T04:48:37.622Z,3.78
2023-03-27T04:51:05.612Z,3.78
2023-03-27T04:53:32.379Z,3.76
2023-03-27T04:55:58.728Z,3.75
2023-03-27T04:58:28.312Z,3.78
2023-03-27T05:00:56.450Z,3.73
2023-03-27T05:03:27.867Z,3.74
2023-03-27T05:05:54.323Z,3.75
2023-03-27T05:08:20.935Z,3.68
2023-03-27T05:10:47.594Z,3.69
2023-03-27T05:13:14.039Z,3.66
2023-03-27T05:15:40.470Z,3.73
2023-03-27T05:18:07.690Z,3.77
2023-03-27T05:20:34.610Z,3.81
2023-03-27T05:23:01.002Z,3.78
2023-03-27T05:25:28.564Z,3.78
2023-03-27T05:27:55.012Z,3.73
2023-03-27T05:30:23.926Z,3.72
2023-03-27T05:32:54.347Z,3.72
2023-03-27T05:35:23.734Z,3.75
2023-03-27T05:37:52.993Z,3.77
2023-03-27T05:40:22.616Z,3.86
2023-03-27T05:42:50.300Z,3.84
2023-03-27T05:45:17.809Z,3.85
2023-03-27T05:47:55.524Z,3.92
2023-03-27T05:50:25.483Z,3.95
2023-03-27T05:53:00.560Z,3.94
2023-03-27T05:55:28.025Z,3.95
2023-03-27T05:57:54.908Z,4.02
2023-03-27T06:00:25.664Z,4.05
2023-03-27T06:02:56.948Z,4.14
2023-03-27T06:05:24.586Z,4.13
2023-03-27T06:07:51.958Z,4.13
2023-03-27T06:10:20.492Z,4.23
2023-03-27T06:12:48.976Z,4.30
2023-03-27T06:15:15.776Z,4.39
2023-03-27T06:17:43.626Z,4.43
2023-03-27T06:20:12.868Z,4.46
2023-03-27T06:22:49.940Z,4.48
2023-03-27T06:25:17.136Z,4.56
2023-03-27T06:27:47.864Z,4.57
2023-03-27T06:30:20.798Z,4.60
2023-03-27T06:32:52.807Z,4.70
2023-03-27T06:35:20.370Z,4.77
2023-03-27T06:37:51.279Z,4.81
2023-03-27T06:40:22.807Z,4.82
2023-03-27T06:43:00.766Z,4.79
2023-03-27T06:45:30.264Z,4.83
2023-03-27T06:48:16.955Z,4.89
2023-03-27T06:50:46.954Z,4.92
2023-03-27T06:55:48.021Z,4.97
2023-03-27T06:58:14.717Z,5.01
2023-03-27T07:00:41.502Z,5.09
2023-03-27T07:03:10.801Z,5.22
2023-03-27T07:05:40.492Z,5.17
2023-03-27T07:08:21.832Z,5.14
2023-03-27T07:10:59.974Z,5.34
2023-03-27T07:13:34.929Z,5.44
2023-03-27T07:16:01.413Z,5.31
2023-03-27T07:18:27.838Z,5.50
2023-03-27T07:20:54.466Z,5.58
2023-03-27T07:23:21.317Z,5.51
2023-03-27T07:25:49.878Z,5.54
2023-03-27T07:28:18.220Z,5.63
2023-03-27T07:30:44.695Z,5.75
2023-03-27T07:33:12.393Z,5.78
2023-03-27T07:35:46.741Z,5.79
2023-03-27T07:38:14.153Z,5.85
2023-03-27T07:40:43.171Z,6.00
2023-03-27T07:43:09.733Z,6.14
2023-03-27T07:45:36.559Z,6.22
2023-03-27T07:48:12.259Z,6.43
2023-03-27T07:50:38.860Z,6.62
2023-03-27T07:53:06.335Z,6.82
2023-03-27T07:55:32.970Z,7.22
2023-03-27T07:58:02.952Z,7.51
2023-03-27T08:00:31.281Z,7.81
2023-03-27T08:03:10.020Z,7.97
2023-03-27T08:05:37.043Z,7.93
2023-03-27T08:08:03.912Z,7.91
2023-03-27T08:10:30.697Z,7.66
2023-03-27T08:12:57.232Z,7.46
2023-03-27T08:15:25.043Z,7.73
2023-03-27T08:17:54.468Z,8.05
2023-03-27T08:20:22.739Z,7.94
2023-03-27T08:22:53.312Z,8.24
2023-03-27T08:25:22.688Z,8.41
2023-03-27T08:27:49.923Z,8.54
2023-03-27T08:30:17.331Z,8.33
2023-03-27T08:32:44.419Z,8.09
2023-03-27T08:35:12.078Z,8.12
2023-03-27T08:37:38.540Z,8.21
2023-03-27T08:40:13.928Z,8.43
2023-03-27T08:42:44.067Z,8.28
2023-03-27T08:45:20.655Z,8.35
2023-03-27T08:47:59.929Z,8.56
2023-03-27T08:50:34.490Z,8.18
2023-03-27T08:53:03.349Z,8.51
2023-03-27T08:55:41.668Z,8.58
2023-03-27T08:58:21.663Z,8.46
2023-03-27T09:01:04.406Z,8.60
2023-03-27T09:03:44.165Z,8.39
2023-03-27T09:06:38.268Z,8.23
2023-03-27T09:09:42.916Z,8.38
2023-03-27T09:12:28.754Z,8.24
2023-03-27T09:15:05.739Z,8.54
2023-03-27T09:17:38.247Z,8.88
2023-03-27T09:20:18.455Z,8.72
2023-03-27T09:22:52.533Z,8.79
2023-03-27T09:25:32.535Z,8.71
2023-03-27T09:28:01.291Z,8.59
2023-03-27T09:30:30.439Z,8.32
2023-03-27T09:33:01.778Z,8.11
2023-03-27T09:35:28.212Z,7.95
2023-03-27T09:38:22.008Z,8.18
2023-03-27T09:41:00.598Z,8.41
2023-03-27T09:43:37.442Z,8.95
2023-03-27T09:46:04.556Z,9.44
2023-03-27T09:48:45.207Z,9.11
2023-03-27T09:51:35.721Z,8.54
2023-03-27T09:54:02.320Z,8.90
2023-03-27T09:56:29.395Z,9.26
2023-03-27T09:58:57.193Z,9.43
2023-03-27T10:01:34.575Z,9.63
2023-03-27T10:04:01.751Z,9.82
2023-03-27T10:06:31.465Z,9.96
2023-03-27T10:09:02.404Z,9.69
2023-03-27T10:11:32.623Z,9.52
2023-03-27T10:14:01.414Z,9.75
2023-03-27T10:16:29.242Z,9.92
2023-03-27T10:18:58.599Z,10.10
2023-03-27T10:21:27.405Z,9.80
2023-03-27T10:24:02.122Z,9.44
2023-03-27T10:26:31.395Z,9.20
2023-03-27T10:29:05.102Z,8.63
2023-03-27T10:31:37.867Z,8.30
2023-03-27T10:34:06.818Z,8.66
2023-03-27T10:36:38.322Z,8.77
2023-03-27T10:39:13.665Z,8.78
2023-03-27T10:41:40.708Z,8.64
2023-03-27T10:44:20.188Z,8.58
2023-03-27T10:46:47.168Z,8.45
2023-03-27T10:49:37.144Z,8.26
2023-03-27T10:52:20.783Z,8.02
2023-03-27T10:55:34.810Z,8.12
2023-03-27T10:58:06.352Z,8.04
2023-03-27T11:00:38.746Z,8.06
2023-03-27T11:03:14.836Z,8.03
2023-03-27T11:05:47.139Z,8.46
2023-03-27T11:08:27.432Z,8.58
2023-03-27T11:11:00.579Z,8.70
2023-03-27T11:13:33.394Z,8.70
2023-03-27T11:16:09.093Z,8.51
2023-03-27T11:18:48.943Z,8.69
2023-03-27T11:21:22.144Z,8.72
2023-03-27T11:23:59.903Z,8.90
2023-03-27T11:26:33.820Z,9.17
2023-03-27T11:29:16.840Z,9.29
2023-03-27T11:31:48.326Z,9.29
2023-03-27T11:34:29.804Z,9.31
2023-03-27T11:36:59.639Z,9.46
2023-03-27T11:39:40.898Z,9.51
2023-03-27T11:42:18.911Z,9.08
2023-03-27T11:44:45.570Z,8.25
2023-03-27T11:47:33.212Z,7.58
2023-03-27T11:49:59.638Z,7.34
2023-03-27T11:52:55.473Z,6.97
2023-03-27T11:55:34.178Z,6.83
2023-03-27T11:58:26.608Z,6.87
2023-03-27T12:01:23.299Z,6.86
2023-03-27T12:04:03.027Z,6.59
2023-03-27T12:07:15.394Z,6.89
2023-03-27T12:10:18.884Z,6.93
2023-03-27T12:13:00.136Z,6.88
2023-03-27T12:15:43.371Z,6.75
2023-03-27T12:18:15.885Z,6.84
2023-03-27T12:20:53.676Z,6.88
2023-03-27T12:24:04.484Z,6.93
2023-03-27T12:27:09.439Z,6.83
2023-03-27T12:29:42.284Z,7.11
2023-03-27T12:32:39.855Z,7.68
2023-03-27T12:35:21.410Z,8.30
2023-03-27T12:38:10.939Z,8.79
2023-03-27T12:40:37.264Z,9.24
2023-03-27T12:43:21.768Z,9.64
2023-03-27T12:46:09.653Z,9.98
2023-03-27T12:48:54.304Z,10.25
2023-03-27T12:51:37.833Z,10.50
2023-03-27T12:54:32.561Z,10.69
2023-03-27T12:57:05.913Z,10.88
2023-03-27T12:59:54.883Z,11.16
2023-03-27T13:02:58.567Z,11.62
2023-03-27T13:05:49.759Z,11.54
2023-03-27T13:08:22.737Z,11.77
2023-03-27T13:10:57.829Z,11.26
2023-03-27T13:14:02.622Z,11.65
2023-03-27T13:16:39.011Z,12.18
2023-03-27T13:19:21.002Z,12.28
2023-03-27T13:22:08.731Z,11.66
2023-03-27T13:24:54.368Z,10.76
2023-03-27T13:27:27.272Z,9.14
2023-03-27T13:29:53.808Z,8.85
2023-03-27T13:32:32.874Z,8.53
2023-03-27T13:35:11.515Z,8.02
2023-03-27T13:37:48.172Z,7.87
2023-03-27T13:40:36.688Z,7.61
2023-03-27T13:43:12.336Z,7.48
2023-03-27T13:45:49.674Z,7.47
2023-03-27T13:48:34.464Z,7.28
2023-03-27T13:51:16.066Z,7.36
2023-03-27T13:54:01.469Z,7.27
2023-03-27T13:56:51.952Z,7.23
2023-03-27T13:59:40.161Z,7.52
2023-03-27T14:02:27.040Z,8.77
2023-03-27T14:05:31.500Z,9.91
2023-03-27T14:08:14.566Z,10.69
2023-03-27T14:10:50.318Z,11.29
2023-03-27T14:13:41.420Z,12.33
2023-03-27T14:16:15.939Z,12.68
2023-03-27T14:19:09.205Z,13.28
2023-03-27T14:22:03.402Z,13.86
2023-03-27T14:24:48.945Z,14.16
2023-03-27T14:27:19.782Z,14.31
2023-03-27T14:29:49.354Z,14.46
2023-03-27T14:32:20.370Z,14.26
2023-03-27T14:35:04.466Z,13.80
2023-03-27T14:37:38.858Z,12.52
2023-03-27T14:40:20.308Z,10.50
2023-03-27T14:42:49.577Z,9.70
2023-03-27T14:45:21.742Z,8.84
2023-03-27T14:47:51.863Z,9.43
2023-03-27T14:50:18.428Z,10.15
2023-03-27T14:52:44.921Z,10.09
2023-03-27T14:55:18.586Z,10.37
2023-03-27T14:57:48.377Z,10.56
2023-03-27T15:00:21.294Z,10.62
2023-03-27T15:02:52.071Z,10.71
2023-03-27T15:05:22.443Z,11.21
2023-03-27T15:07:49.540Z,11.69
2023-03-27T15:10:24.239Z,12.34
2023-03-27T15:12:51.138Z,12.81
2023-03-27T15:15:27.105Z,12.68
2023-03-27T15:17:54.817Z,12.90
2023-03-27T15:20:25.134Z,12.81
2023-03-27T15:23:00.763Z,12.73
2023-03-27T15:25:49.678Z,12.57
2023-03-27T15:28:32.763Z,12.36
2023-03-27T15:31:03.230Z,11.99
2023-03-27T15:33:41.007Z,11.41
2023-03-27T15:36:26.236Z,10.74
2023-03-27T15:39:00.576Z,10.32
2023-03-27T15:41:32.777Z,10.00
2023-03-27T15:44:05.527Z,9.80
2023-03-27T15:46:46.342Z,10.17
2023-03-27T15:49:29.229Z,10.24
2023-03-27T15:51:57.185Z,10.30
2023-03-27T15:54:35.389Z,10.19
2023-03-27T15:57:10.169Z,9.93
2023-03-27T15:59:51.927Z,9.64
2023-03-27T16:02:21.583Z,9.45
2023-03-27T16:04:57.119Z,9.21
2023-03-27T16:07:32.534Z,8.96
2023-03-27T16:10:06.781Z,8.80
2023-03-27T16:12:54.818Z,8.70
2023-03-27T16:15:41.037Z,8.43
2023-03-27T16:18:19.816Z,7.96
2023-03-27T16:20:46.214Z,7.86
2023-03-27T16:23:12.530Z,7.58
2023-03-27T16:25:40.468Z,7.53
2023-03-27T16:28:10.988Z,7.68
2023-03-27T16:30:41.397Z,7.81
2023-03-27T16:33:15.803Z,7.83
2023-03-27T16:35:43.178Z,7.72
2023-03-27T16:38:09.764Z,7.70
2023-03-27T16:40:36.389Z,7.77
2023-03-27T16:43:02.842Z,7.82
2023-03-27T16:45:29.628Z,7.85
2023-03-27T16:47:56.323Z,7.74
2023-03-27T16:50:26.555Z,7.66
2023-03-27T16:52:52.888Z,7.63
2023-03-27T16:55:19.423Z,7.52
2023-03-27T16:57:48.818Z,7.47
2023-03-27T17:00:16.564Z,7.32
2023-03-27T17:02:44.225Z,7.28
2023-03-27T17:05:10.825Z,7.15
2023-03-27T17:07:37.260Z,7.19
2023-03-27T17:10:04.161Z,7.11
2023-03-27T17:12:30.610Z,7.11
2023-03-27T17:14:57.047Z,7.12
2023-03-27T17:17:23.738Z,7.15
2023-03-27T17:19:50.371Z,7.16
2023-03-27T17:22:16.818Z,7.16
2023-03-27T17:24:55.467Z,7.19
2023-03-27T17:27:23.945Z,7.17
2023-03-27T17:29:51.168Z,7.18
2023-03-27T17:32:17.538Z,7.10
2023-03-27T17:34:43.949Z,7.12
2023-03-27T17:37:12.387Z,7.11
2023-03-27T17:39:39.003Z,7.12
2023-03-27T17:42:05.651Z,7.10
2023-03-27T17:44:32.025Z,7.06
2023-03-27T17:46:58.579Z,7.06
2023-03-27T17:49:24.915Z,7.06
2023-03-27T17:51:51.763Z,6.98
2023-03-27T17:54:18.453Z,6.98
2023-03-27T17:56:44.889Z,6.95
2023-03-27T17:59:11.398Z,6.88
2023-03-27T18:01:37.838Z,6.80
2023-03-27T18:04:04.438Z,6.79
2023-03-27T18:06:31.001Z,6.75
2023-03-27T18:08:58.074Z,6.75
2023-03-27T18:11:24.597Z,6.73
2023-03-27T18:13:53.108Z,6.75
2023-03-27T18:16:21.566Z,6.72
2023-03-27T18:18:48.211Z,6.66
2023-03-27T18:21:16.195Z,6.62
2023-03-27T18:23:45.808Z,6.65
2023-03-27T18:26:13.758Z,6.60
2023-03-27T18:28:40.137Z,6.53
2023-03-27T18:31:08.935Z,6.58
2023-03-27T18:33:35.902Z,6.53
2023-03-27T18:36:04.003Z,6.53
2023-03-27T18:38:30.466Z,6.45
2023-03-27T18:40:57.704Z,6.40
2023-03-27T18:43:24.358Z,6.40
2023-03-27T18:45:58.931Z,6.37
2023-03-27T18:48:26.473Z,6.32
2023-03-27T18:50:57.880Z,6.29
2023-03-27T18:53:25.078Z,6.19
2023-03-27T18:55:52.503Z,6.21
2023-03-27T18:58:20.758Z,6.21
2023-03-27T19:00:47.398Z,6.15
2023-03-27T19:03:20.202Z,6.18
2023-03-27T19:05:47.792Z,6.13
2023-03-27T19:08:14.841Z,6.13
2023-03-27T19:10:41.310Z,6.10
2023-03-27T19:13:07.858Z,6.03
2023-03-27T19:15:34.394Z,5.96
2023-03-27T19:18:01.512Z,5.91
2023-03-27T19:20:28.478Z,5.95
2023-03-27T19:22:54.839Z,5.97
2023-03-27T19:25:21.203Z,5.99
2023-03-27T19:27:47.559Z,6.03
2023-03-27T19:30:14.598Z,5.99
2023-03-27T19:32:41.327Z,5.95
2023-03-27T19:35:08.965Z,5.94
2023-03-27T19:37:35.572Z,5.91
2023-03-27T19:40:01.944Z,5.84
2023-03-27T19:42:29.410Z,5.84
2023-03-27T19:44:56.023Z,5.84
2023-03-27T19:47:22.448Z,5.83
2023-03-27T19:49:48.935Z,5.79
2023-03-27T19:52:19.733Z,5.80
2023-03-27T19:54:46.497Z,5.78
2023-03-27T19:57:13.017Z,5.74
2023-03-27T19:59:39.475Z,5.72
2023-03-27T20:02:06.760Z,5.69
2023-03-27T20:04:33.399Z,5.75
2023-03-27T20:07:01.691Z,5.67
2023-03-27T20:09:28.215Z,5.69
2023-03-27T20:11:54.872Z,5.69
2023-03-27T20:14:21.242Z,5.67
2023-03-27T20:16:48.217Z,5.64
2023-03-27T20:19:16.623Z,5.65
2023-03-27T20:21:43.599Z,5.58
2023-03-27T20:24:12.769Z,5.59
2023-03-27T20:26:41.239Z,5.61
2023-03-27T20:29:10.629Z,5.59
2023-03-27T20:31:38.121Z,5.57
2023-03-27T20:34:06.338Z,5.48
2023-03-27T20:36:34.778Z,5.48
2023-03-27T20:39:04.675Z,5.48
2023-03-27T20:41:38.877Z,5.51
2023-03-27T20:44:15.480Z,5.48
2023-03-27T20:46:47.377Z,5.49
2023-03-27T20:49:37.547Z,5.48
2023-03-27T20:52:07.860Z,5.42
2023-03-27T20:54:34.677Z,5.39
2023-03-27T20:57:02.376Z,5.39
2023-03-27T20:59:29.892Z,5.40
2023-03-27T21:01:57.006Z,5.40
2023-03-27T21:04:25.790Z,5.35
2023-03-27T21:06:54.826Z,5.33
2023-03-27T21:09:22.704Z,5.33
2023-03-27T21:11:49.234Z,5.29
2023-03-27T21:14:16.025Z,5.23
2023-03-27T21:16:42.738Z,5.23
2023-03-27T21:19:10.601Z,5.21
2023-03-27T21:21:37.267Z,5.18
2023-03-27T21:24:03.782Z,5.14
2023-03-27T21:26:30.387Z,5.12
2023-03-27T21:28:56.718Z,5.14
2023-03-27T21:31:23.200Z,5.17
2023-03-27T21:33:49.545Z,5.09
2023-03-27T21:36:16.362Z,5.09
2023-03-27T21:38:42.836Z,5.09
2023-03-27T21:41:12.948Z,5.09
2023-03-27T21:43:39.271Z,5.11
2023-03-27T21:46:06.356Z,5.06
2023-03-27T21:48:32.813Z,5.04
2023-03-27T21:51:04.912Z,5.00
2023-03-27T21:53:31.367Z,5.02
2023-03-27T21:55:58.318Z,4.97
2023-03-27T21:58:25.721Z,4.94
2023-03-27T22:00:54.723Z,4.91
2023-03-27T22:03:21.093Z,4.88
2023-03-27T22:05:57.383Z,4.86
2023-03-27T22:08:33.997Z,4.79
2023-03-27T22:11:01.761Z,4.74
2023-03-27T22:13:28.132Z,4.74
2023-03-27T22:15:54.749Z,4.66
2023-03-27T22:18:21.323Z,4.65
2023-03-27T22:20:47.771Z,4.59
2023-03-27T22:23:14.086Z,4.51
2023-03-27T22:25:40.394Z,4.40
2023-03-27T22:28:06.790Z,4.26
2023-03-27T22:30:33.173Z,4.23
2023-03-27T22:32:59.602Z,4.26
2023-03-27T22:35:26.290Z,4.22
2023-03-27T22:37:52.620Z,4.07
2023-03-27T22:40:19.056Z,4.06
2023-03-27T22:42:45.566Z,4.01
2023-03-27T22:45:12.099Z,4.03
2023-03-27T22:47:38.445Z,4.01
2023-03-27T22:50:06.347Z,4.02
2023-03-27T22:52:32.997Z,4.03
2023-03-27T22:54:59.472Z,4.04
2023-03-27T22:57:25.944Z,4.02
2023-03-27T22:59:52.480Z,4.04
2023-03-27T23:02:18.939Z,3.97
2023-03-27T23:04:45.388Z,4.07
2023-03-27T23:07:12.124Z,4.04
2023-03-27T23:09:38.536Z,3.98
2023-03-27T23:12:05.276Z,3.97
2023-03-27T23:14:31.808Z,3.91
2023-03-27T23:16:58.185Z,3.91
2023-03-27T23:19:24.753Z,3.91
2023-03-27T23:21:51.114Z,3.91
2023-03-27T23:24:17.466Z,3.82
2023-03-27T23:26:43.923Z,3.82
2023-03-27T23:29:10.290Z,3.82
2023-03-27T23:31:36.669Z,3.83
2023-03-27T23:34:03.081Z,3.72
2023-03-27T23:36:29.722Z,3.70
2023-03-27T23:38:56.413Z,3.64
2023-03-27T23:41:22.916Z,3.50
2023-03-27T23:43:49.538Z,3.35
2023-03-27T23:46:16.745Z,3.27
2023-03-27T23:48:44.459Z,3.20
2023-03-27T23:51:12.820Z,3.15
2023-03-27T23:53:39.376Z,3.06
2023-03-27T23:56:06.246Z,3.00
2023-03-27T23:58:32.985Z,3.02
